Time;durP1;ratioP1;P1;durP2;ratioP2;P2;SDS_P1;SDS_P2;PMS_P1;PMS_P2;Temp;Humidity;BMP_temperature;BMP_pressure;BME280_temperature;BME280_humidity;BME280_pressure;Samples;Min_cycle;Max_cycle;Signal;HPM_P1;HPM_P2
2022/07/16 00:02:50;;;;;;;3.13;1.70;;;;;;;;;;5089918;28;20036;-66
2022/07/16 00:05:16;;;;;;;3.15;1.67;;;;;;;;;;5081743;28;20516;-66
2022/07/16 00:07:42;;;;;;;2.38;1.83;;;;;;;;;;5083397;28;20122;-67
2022/07/16 00:10:09;;;;;;;2.35;1.60;;;;;;;;;;5084697;28;20120;-66
2022/07/16 00:12:35;;;;;;;3.38;2.00;;;;;;;;;;5087095;28;20497;-67
2022/07/16 00:15:02;;;;;;;3.85;1.67;;;;;;;;;;5092827;28;20062;-67
2022/07/16 00:17:28;;;;;;;2.92;1.67;;;;;;;;;;5090245;28;20056;-67
2022/07/16 00:19:54;;;;;;;3.58;1.92;;;;;;;;;;5083423;28;20124;-67
2022/07/16 00:22:20;;;;;;;3.78;1.67;;;;;;;;;;5081000;28;20493;-67
2022/07/16 00:24:46;;;;;;;3.47;1.50;;;;;;;;;;5084924;28;20071;-66
2022/07/16 00:27:12;;;;;;;2.40;1.80;;;;;;;;;;5084947;28;20033;-67
2022/07/16 00:29:38;;;;;;;3.72;1.63;;;;;;;;;;5092868;28;20566;-66
2022/07/16 00:32:04;;;;;;;2.30;1.60;;;;;;;;;;5088337;28;20029;-67
2022/07/16 00:34:30;;;;;;;2.08;1.48;;;;;;;;;;5086338;28;20072;-66
2022/07/16 00:36:56;;;;;;;3.22;1.60;;;;;;;;;;5086074;28;20043;-67
2022/07/16 00:39:22;;;;;;;3.88;1.50;;;;;;;;;;5081552;28;20039;-67
2022/07/16 00:41:48;;;;;;;3.85;1.70;;;;;;;;;;5080671;28;20047;-66
2022/07/16 00:44:16;;;;;;;3.88;1.70;;;;;;;;;;5090541;28;20055;-66
2022/07/16 00:46:42;;;;;;;2.78;1.67;;;;;;;;;;5083889;28;20033;-66
2022/07/16 00:49:09;;;;;;;3.30;1.67;;;;;;;;;;5088673;28;20085;-66
2022/07/16 00:51:35;;;;;;;2.53;1.50;;;;;;;;;;5088817;28;20047;-66
2022/07/16 00:54:01;;;;;;;4.10;1.98;;;;;;;;;;5087222;28;20044;-66
2022/07/16 00:56:28;;;;;;;3.42;1.85;;;;;;;;;;5088286;28;20405;-66
2022/07/16 00:58:54;;;;;;;4.28;1.85;;;;;;;;;;5084253;28;20516;-67
2022/07/16 01:01:20;;;;;;;3.88;1.80;;;;;;;;;;5090591;28;20083;-66
2022/07/16 01:03:47;;;;;;;2.85;1.85;;;;;;;;;;5084871;28;20043;-66
2022/07/16 01:06:14;;;;;;;2.88;1.67;;;;;;;;;;5089100;28;20032;-66
2022/07/16 01:08:44;;;;;;;2.50;1.85;;;;;;;;;;5079907;28;20434;-66
2022/07/16 01:11:11;;;;;;;2.15;1.73;;;;;;;;;;5079450;28;20066;-66
2022/07/16 01:13:42;;;;;;;2.30;1.73;;;;;;;;;;5086924;28;20107;-67
2022/07/16 01:16:08;;;;;;;3.42;1.75;;;;;;;;;;5081941;28;20386;-66
2022/07/16 01:18:35;;;;;;;4.70;2.10;;;;;;;;;;5091277;28;20040;-67
2022/07/16 01:21:01;;;;;;;2.67;1.90;;;;;;;;;;5082116;28;20047;-66
2022/07/16 01:23:27;;;;;;;4.20;2.00;;;;;;;;;;5085411;28;20040;-66
2022/07/16 01:25:54;;;;;;;4.25;2.00;;;;;;;;;;5076149;28;20037;-66
2022/07/16 01:28:20;;;;;;;3.83;1.88;;;;;;;;;;5078725;28;20470;-67
2022/07/16 01:30:46;;;;;;;5.40;1.90;;;;;;;;;;5087570;28;20032;-66
2022/07/16 01:33:28;;;;;;;2.63;1.90;;;;;;;;;;5082458;28;20327;-67
2022/07/16 01:35:58;;;;;;;4.53;2.08;;;;;;;;;;5082217;28;20486;-67
2022/07/16 01:38:25;;;;;;;5.13;2.30;;;;;;;;;;5084638;28;20032;-67
2022/07/16 01:40:51;;;;;;;3.85;2.00;;;;;;;;;;5080545;28;20428;-67
2022/07/16 01:43:18;;;;;;;4.15;1.95;;;;;;;;;;5076927;28;20315;-67
2022/07/16 01:45:44;;;;;;;3.97;2.35;;;;;;;;;;5078683;28;20106;-66
2022/07/16 01:48:11;;;;;;;3.75;2.30;;;;;;;;;;5086376;28;20049;-66
2022/07/16 01:50:37;;;;;;;4.28;2.33;;;;;;;;;;5087756;28;20050;-67
2022/07/16 01:53:03;;;;;;;4.63;2.53;;;;;;;;;;5087101;28;20489;-67
2022/07/16 01:55:29;;;;;;;4.07;2.30;;;;;;;;;;5078682;28;20627;-66
2022/07/16 01:57:56;;;;;;;3.75;2.10;;;;;;;;;;5091414;28;20405;-66
2022/07/16 02:00:22;;;;;;;4.28;2.30;;;;;;;;;;5088186;28;20044;-66
2022/07/16 02:02:48;;;;;;;7.53;2.70;;;;;;;;;;5078170;28;20102;-66
2022/07/16 02:05:14;;;;;;;3.58;2.75;;;;;;;;;;5081917;28;20048;-66
2022/07/16 02:07:40;;;;;;;5.70;2.90;;;;;;;;;;5078648;28;20085;-66
2022/07/16 02:10:06;;;;;;;6.68;2.95;;;;;;;;;;5088697;28;20042;-66
2022/07/16 02:12:32;;;;;;;4.97;2.83;;;;;;;;;;5087539;28;20028;-66
2022/07/16 02:14:58;;;;;;;4.45;2.85;;;;;;;;;;5079750;28;20082;-66
2022/07/16 02:17:25;;;;;;;4.63;2.78;;;;;;;;;;5082568;28;20097;-66
2022/07/16 02:19:51;;;;;;;5.07;2.83;;;;;;;;;;5082496;28;20070;-67
2022/07/16 02:22:17;;;;;;;5.68;3.15;;;;;;;;;;5080001;28;20521;-66
2022/07/16 02:24:43;;;;;;;4.80;3.50;;;;;;;;;;5085393;28;20034;-66
2022/07/16 02:27:09;;;;;;;6.28;3.40;;;;;;;;;;5091295;28;20439;-66
2022/07/16 02:29:35;;;;;;;4.32;3.38;;;;;;;;;;5087572;28;20891;-66
2022/07/16 02:32:01;;;;;;;6.10;3.47;;;;;;;;;;5082350;28;20122;-66
2022/07/16 02:34:27;;;;;;;6.53;3.15;;;;;;;;;;5082525;28;20047;-66
2022/07/16 02:36:53;;;;;;;6.43;3.13;;;;;;;;;;5084344;28;20197;-66
2022/07/16 02:39:19;;;;;;;5.97;3.60;;;;;;;;;;5079338;28;20173;-66
2022/07/16 02:41:45;;;;;;;5.80;3.97;;;;;;;;;;5090322;28;20046;-66
2022/07/16 02:44:11;;;;;;;4.97;3.60;;;;;;;;;;5087628;28;20038;-66
2022/07/16 02:46:37;;;;;;;5.72;3.30;;;;;;;;;;5086565;28;20717;-66
2022/07/16 02:49:03;;;;;;;5.70;3.22;;;;;;;;;;5086056;28;20072;-66
2022/07/16 02:51:29;;;;;;;6.00;3.45;;;;;;;;;;5079604;28;20071;-66
2022/07/16 02:53:55;;;;;;;4.30;3.30;;;;;;;;;;5083209;28;20155;-66
2022/07/16 02:56:21;;;;;;;4.63;3.72;;;;;;;;;;5090638;28;20490;-66
2022/07/16 02:58:47;;;;;;;5.85;3.38;;;;;;;;;;5087945;28;20487;-66
2022/07/16 03:01:13;;;;;;;6.63;3.75;;;;;;;;;;5078642;28;20433;-66
2022/07/16 03:03:39;;;;;;;6.45;3.60;;;;;;;;;;5082263;28;20044;-66
2022/07/16 03:06:06;;;;;;;5.18;3.42;;;;;;;;;;5088398;28;20028;-65
2022/07/16 03:08:32;;;;;;;5.30;3.58;;;;;;;;;;5078594;28;20068;-66
2022/07/16 03:10:58;;;;;;;3.78;3.03;;;;;;;;;;5087604;28;20110;-66
2022/07/16 03:13:24;;;;;;;5.00;3.17;;;;;;;;;;5079686;28;20093;-66
2022/07/16 03:15:50;;;;;;;7.22;3.20;;;;;;;;;;5088096;28;20123;-66
2022/07/16 03:18:16;;;;;;;5.75;3.10;;;;;;;;;;5086106;28;20130;-66
2022/07/16 03:20:42;;;;;;;5.35;3.40;;;;;;;;;;5078134;28;20068;-66
2022/07/16 03:23:08;;;;;;;6.78;3.30;;;;;;;;;;5087600;28;20493;-66
2022/07/16 03:25:34;;;;;;;4.55;2.85;;;;;;;;;;5078987;28;20035;-66
2022/07/16 03:28:00;;;;;;;5.22;2.97;;;;;;;;;;5082320;28;20428;-66
2022/07/16 03:30:26;;;;;;;3.85;2.85;;;;;;;;;;5086909;28;20100;-66
2022/07/16 03:32:52;;;;;;;5.25;3.00;;;;;;;;;;5082746;28;20082;-66
2022/07/16 03:35:18;;;;;;;6.75;2.85;;;;;;;;;;5083050;28;20044;-66
2022/07/16 03:40:29;;;;;;;7.32;2.85;;;;;;;;;;5083898;28;20039;-66
2022/07/16 03:42:55;;;;;;;5.28;2.50;;;;;;;;;;5083002;28;20119;-66
2022/07/16 03:45:22;;;;;;;6.35;2.88;;;;;;;;;;5083281;28;20040;-66
2022/07/16 03:47:48;;;;;;;5.00;3.00;;;;;;;;;;5083300;28;20040;-66
2022/07/16 03:50:14;;;;;;;7.95;2.70;;;;;;;;;;5089754;28;20032;-66
2022/07/16 03:52:40;;;;;;;5.80;2.92;;;;;;;;;;5089221;28;20040;-66
2022/07/16 03:55:06;;;;;;;4.28;2.60;;;;;;;;;;5089225;28;20035;-66
2022/07/16 03:57:32;;;;;;;7.13;2.63;;;;;;;;;;5091641;28;20276;-66
2022/07/16 03:59:58;;;;;;;4.00;2.63;;;;;;;;;;5080769;28;20049;-66
2022/07/16 04:02:24;;;;;;;5.28;2.38;;;;;;;;;;5089482;28;20024;-66
2022/07/16 04:04:50;;;;;;;7.43;2.83;;;;;;;;;;5085425;28;20028;-66
2022/07/16 04:07:16;;;;;;;4.13;2.22;;;;;;;;;;5087387;28;20036;-66
2022/07/16 04:09:42;;;;;;;5.45;2.35;;;;;;;;;;5086047;28;21290;-66
2022/07/16 04:12:08;;;;;;;4.78;2.20;;;;;;;;;;5081974;28;20036;-66
2022/07/16 04:14:34;;;;;;;5.82;1.77;;;;;;;;;;5091371;28;20036;-65
2022/07/16 04:17:00;;;;;;;5.13;1.90;;;;;;;;;;5084400;28;20028;-65
2022/07/16 04:19:26;;;;;;;4.47;2.17;;;;;;;;;;5082977;28;20405;-65
2022/07/16 04:21:52;;;;;;;3.70;1.73;;;;;;;;;;5071844;28;20036;-65
2022/07/16 04:24:18;;;;;;;4.80;2.00;;;;;;;;;;5091945;28;20124;-65
2022/07/16 04:26:44;;;;;;;6.50;1.85;;;;;;;;;;5087143;28;20034;-65
2022/07/16 04:29:10;;;;;;;4.38;1.90;;;;;;;;;;5081722;28;20036;-65
2022/07/16 04:31:36;;;;;;;5.85;1.73;;;;;;;;;;5073891;28;20040;-66
2022/07/16 04:34:02;;;;;;;7.28;2.47;;;;;;;;;;5084758;28;20036;-66
2022/07/16 04:36:28;;;;;;;4.45;1.67;;;;;;;;;;5089423;28;20042;-66
2022/07/16 04:38:54;;;;;;;4.00;1.77;;;;;;;;;;5081299;28;20037;-65
2022/07/16 04:41:20;;;;;;;7.07;1.73;;;;;;;;;;5088259;28;20133;-66
2022/07/16 04:43:46;;;;;;;4.95;1.98;;;;;;;;;;5088037;28;20029;-66
2022/07/16 04:46:12;;;;;;;4.68;1.95;;;;;;;;;;5083526;28;20043;-65
2022/07/16 04:48:40;;;;;;;3.88;1.90;;;;;;;;;;5090107;28;20036;-66
2022/07/16 04:51:06;;;;;;;5.65;2.00;;;;;;;;;;5078441;28;20051;-65
2022/07/16 04:53:32;;;;;;;3.92;1.80;;;;;;;;;;5091047;28;20043;-66
2022/07/16 04:55:58;;;;;;;4.88;2.00;;;;;;;;;;5088017;28;20036;-65
2022/07/16 04:58:24;;;;;;;5.35;1.70;;;;;;;;;;5080424;28;20079;-65
2022/07/16 05:00:50;;;;;;;3.22;1.65;;;;;;;;;;5089156;28;20041;-66
2022/07/16 05:03:17;;;;;;;6.75;1.92;;;;;;;;;;5088715;28;20032;-65
2022/07/16 05:05:43;;;;;;;8.63;2.10;;;;;;;;;;5083471;28;20033;-66
2022/07/16 05:08:10;;;;;;;4.90;1.70;;;;;;;;;;5078344;28;20197;-65
2022/07/16 05:10:36;;;;;;;4.80;2.03;;;;;;;;;;5083073;28;20514;-63
2022/07/16 05:13:03;;;;;;;2.53;1.38;;;;;;;;;;5104192;22;20044;-62
2022/07/16 05:15:30;;;;;;;5.03;1.80;;;;;;;;;;5106536;28;20113;-62
2022/07/16 05:17:56;;;;;;;7.07;2.22;;;;;;;;;;5109813;28;20040;-62
2022/07/16 05:20:22;;;;;;;5.10;1.83;;;;;;;;;;5107405;28;20043;-62
2022/07/16 05:22:48;;;;;;;6.00;1.90;;;;;;;;;;5105065;28;20035;-63
2022/07/16 05:25:15;;;;;;;5.43;1.77;;;;;;;;;;5108035;28;20027;-62
2022/07/16 05:27:41;;;;;;;5.40;1.83;;;;;;;;;;5104647;28;20028;-62
2022/07/16 05:30:09;;;;;;;4.18;1.65;;;;;;;;;;5104303;28;20039;-62
2022/07/16 05:32:36;;;;;;;4.93;1.60;;;;;;;;;;5109456;28;20047;-62
2022/07/16 05:35:02;;;;;;;5.65;1.85;;;;;;;;;;5104403;28;20040;-62
2022/07/16 05:37:28;;;;;;;4.25;1.50;;;;;;;;;;5101677;28;20046;-62
2022/07/16 05:39:54;;;;;;;6.43;1.80;;;;;;;;;;5108672;28;20035;-62
2022/07/16 05:42:20;;;;;;;6.15;1.80;;;;;;;;;;5102967;28;20036;-62
2022/07/16 05:44:46;;;;;;;5.88;1.60;;;;;;;;;;5103065;28;20036;-63
2022/07/16 05:47:12;;;;;;;5.22;1.65;;;;;;;;;;5106150;28;20066;-63
2022/07/16 05:49:38;;;;;;;7.10;2.00;;;;;;;;;;5104310;28;20074;-63
2022/07/16 05:52:04;;;;;;;6.63;1.88;;;;;;;;;;5101876;28;20031;-63
2022/07/16 05:54:31;;;;;;;6.50;1.80;;;;;;;;;;5104777;28;20040;-63
2022/07/16 05:56:57;;;;;;;5.22;1.38;;;;;;;;;;5102210;28;20043;-62
2022/07/16 05:59:23;;;;;;;5.75;1.55;;;;;;;;;;5105311;28;20032;-63
2022/07/16 06:01:49;;;;;;;3.83;1.50;;;;;;;;;;5103850;28;20039;-63
2022/07/16 06:04:15;;;;;;;6.60;1.50;;;;;;;;;;5103610;28;20040;-63
2022/07/16 06:06:41;;;;;;;8.85;1.73;;;;;;;;;;5102327;28;20432;-64
2022/07/16 06:09:07;;;;;;;6.03;1.52;;;;;;;;;;5107322;28;20035;-63
2022/07/16 06:11:33;;;;;;;4.85;1.52;;;;;;;;;;5106460;28;20036;-63
2022/07/16 06:13:59;;;;;;;3.45;1.35;;;;;;;;;;5107269;28;20400;-63
2022/07/16 06:16:25;;;;;;;8.05;1.50;;;;;;;;;;5101160;28;20044;-63
2022/07/16 06:18:51;;;;;;;6.75;1.50;;;;;;;;;;5104087;28;20040;-63
2022/07/16 06:21:17;;;;;;;4.18;1.48;;;;;;;;;;5097046;28;20076;-63
2022/07/16 06:23:43;;;;;;;5.70;1.50;;;;;;;;;;5100980;28;20058;-63
2022/07/16 06:26:09;;;;;;;4.80;1.48;;;;;;;;;;5105440;28;20550;-63
2022/07/16 06:28:35;;;;;;;7.93;1.40;;;;;;;;;;5103200;28;20032;-63
2022/07/16 06:31:01;;;;;;;4.57;1.27;;;;;;;;;;5108349;28;20123;-63
2022/07/16 06:33:27;;;;;;;4.78;1.08;;;;;;;;;;5105955;28;20609;-63
2022/07/16 06:35:53;;;;;;;5.85;1.40;;;;;;;;;;5099544;28;20058;-63
2022/07/16 06:38:19;;;;;;;4.13;1.25;;;;;;;;;;5099293;28;20397;-63
2022/07/16 06:40:45;;;;;;;3.10;1.13;;;;;;;;;;5106441;28;20035;-63
2022/07/16 06:43:11;;;;;;;5.03;1.13;;;;;;;;;;5100412;28;20028;-64
2022/07/16 06:45:38;;;;;;;4.65;1.30;;;;;;;;;;5099753;28;20051;-65
2022/07/16 06:48:04;;;;;;;3.33;1.10;;;;;;;;;;5104100;28;20157;-64
2022/07/16 06:50:30;;;;;;;4.75;1.20;;;;;;;;;;5099872;28;20040;-64
2022/07/16 06:52:56;;;;;;;6.80;1.23;;;;;;;;;;5102487;28;20039;-64
2022/07/16 06:55:22;;;;;;;2.20;0.73;;;;;;;;;;5100443;28;20074;-64
2022/07/16 06:57:48;;;;;;;6.20;1.08;;;;;;;;;;5110212;28;20396;-65
2022/07/16 07:00:15;;;;;;;5.85;1.30;;;;;;;;;;5108360;28;20031;-64
2022/07/16 07:02:41;;;;;;;4.57;0.98;;;;;;;;;;5103542;28;20107;-64
2022/07/16 07:05:08;;;;;;;4.95;1.10;;;;;;;;;;5108719;28;20173;-65
2022/07/16 07:07:34;;;;;;;4.18;0.70;;;;;;;;;;5099974;28;20036;-64
2022/07/16 07:10:00;;;;;;;6.07;0.80;;;;;;;;;;5106519;28;20118;-63
2022/07/16 07:12:26;;;;;;;7.65;1.30;;;;;;;;;;5101963;28;20036;-64
2022/07/16 07:14:52;;;;;;;7.97;1.23;;;;;;;;;;5105868;28;20062;-64
2022/07/16 07:17:18;;;;;;;5.32;0.88;;;;;;;;;;5106259;28;20450;-65
2022/07/16 07:19:44;;;;;;;5.47;0.98;;;;;;;;;;5110059;28;20064;-64
2022/07/16 07:22:10;;;;;;;5.68;1.00;;;;;;;;;;5111924;28;20069;-65
2022/07/16 07:24:36;;;;;;;4.43;1.08;;;;;;;;;;5103822;28;20427;-65
2022/07/16 07:27:02;;;;;;;3.85;0.77;;;;;;;;;;5106491;28;20036;-64
2022/07/16 07:29:28;;;;;;;6.10;1.00;;;;;;;;;;5110259;28;20055;-65
2022/07/16 07:31:54;;;;;;;5.80;0.93;;;;;;;;;;5114112;28;20032;-64
2022/07/16 07:34:20;;;;;;;6.72;1.00;;;;;;;;;;5107806;28;20489;-64
2022/07/16 07:36:46;;;;;;;4.75;1.00;;;;;;;;;;5105858;28;20051;-63
2022/07/16 07:39:12;;;;;;;4.28;1.05;;;;;;;;;;5102370;28;20131;-64
2022/07/16 07:41:38;;;;;;;4.95;0.90;;;;;;;;;;5112561;28;20509;-64
2022/07/16 07:44:04;;;;;;;5.78;0.98;;;;;;;;;;5109458;28;20055;-64
2022/07/16 07:46:30;;;;;;;4.97;0.95;;;;;;;;;;5108869;28;20051;-64
2022/07/16 07:48:56;;;;;;;4.82;0.90;;;;;;;;;;5110637;28;20038;-63
2022/07/16 07:51:23;;;;;;;4.80;0.80;;;;;;;;;;5109997;28;20035;-63
2022/07/16 07:53:50;;;;;;;5.60;1.02;;;;;;;;;;5109566;28;20050;-63
2022/07/16 07:56:16;;;;;;;1.60;0.70;;;;;;;;;;5112304;28;20047;-63
2022/07/16 07:58:42;;;;;;;4.32;0.50;;;;;;;;;;5111347;28;20067;-64
2022/07/16 08:01:08;;;;;;;5.82;0.82;;;;;;;;;;5108507;28;20044;-64
2022/07/16 08:03:34;;;;;;;5.32;0.70;;;;;;;;;;5108555;28;20040;-63
2022/07/16 08:06:00;;;;;;;8.00;0.75;;;;;;;;;;5106506;27;20043;-64
2022/07/16 08:08:26;;;;;;;3.35;0.90;;;;;;;;;;5108203;27;20032;-64
2022/07/16 08:10:52;;;;;;;3.55;0.85;;;;;;;;;;5110254;28;20511;-64
2022/07/16 08:13:18;;;;;;;4.55;0.70;;;;;;;;;;5102530;28;20122;-64
2022/07/16 08:15:45;;;;;;;2.55;0.68;;;;;;;;;;5109498;28;20039;-64
2022/07/16 08:18:11;;;;;;;2.10;0.70;;;;;;;;;;5111538;28;20044;-64
2022/07/16 08:20:38;;;;;;;2.67;0.57;;;;;;;;;;5107286;28;20032;-64
2022/07/16 08:23:04;;;;;;;5.50;0.90;;;;;;;;;;5110462;28;20032;-64
2022/07/16 08:25:45;;;;;;;5.50;1.02;;;;;;;;;;5105738;28;20032;-64
2022/07/16 08:28:13;;;;;;;3.08;0.60;;;;;;;;;;5107152;28;20423;-64
2022/07/16 08:30:39;;;;;;;5.40;0.93;;;;;;;;;;5105410;28;20076;-63
2022/07/16 08:33:05;;;;;;;3.47;0.80;;;;;;;;;;5109829;28;20039;-63
2022/07/16 08:35:31;;;;;;;2.92;0.88;;;;;;;;;;5109355;28;20557;-63
2022/07/16 08:37:57;;;;;;;3.83;0.88;;;;;;;;;;5101992;28;20123;-63
2022/07/16 08:40:24;;;;;;;2.00;0.73;;;;;;;;;;5103874;28;20082;-64
2022/07/16 08:42:50;;;;;;;2.70;0.70;;;;;;;;;;5109904;28;20035;-64
2022/07/16 08:45:18;;;;;;;3.58;0.80;;;;;;;;;;5109003;28;20078;-63
2022/07/16 08:47:44;;;;;;;2.50;0.63;;;;;;;;;;5105034;28;20040;-64
2022/07/16 08:50:11;;;;;;;7.03;1.08;;;;;;;;;;5105005;28;20126;-64
2022/07/16 08:52:39;;;;;;;2.13;0.80;;;;;;;;;;5104147;28;20071;-65
2022/07/16 08:55:06;;;;;;;1.35;0.50;;;;;;;;;;5108094;28;20144;-64
2022/07/16 08:57:33;;;;;;;3.25;0.57;;;;;;;;;;5108973;28;20031;-65
2022/07/16 08:59:59;;;;;;;5.03;1.00;;;;;;;;;;5105967;28;20043;-64
2022/07/16 09:02:25;;;;;;;2.50;0.70;;;;;;;;;;5099418;28;20112;-65
2022/07/16 09:04:52;;;;;;;3.72;0.77;;;;;;;;;;5106706;28;20031;-65
2022/07/16 09:07:19;;;;;;;5.70;0.90;;;;;;;;;;5107196;28;20047;-64
2022/07/16 09:09:45;;;;;;;2.60;0.73;;;;;;;;;;5104594;28;20040;-65
2022/07/16 09:12:12;;;;;;;3.97;0.70;;;;;;;;;;5106685;28;20122;-65
2022/07/16 09:14:38;;;;;;;2.28;0.50;;;;;;;;;;5109586;28;20123;-64
2022/07/16 09:17:04;;;;;;;4.60;0.88;;;;;;;;;;5107125;28;20088;-65
2022/07/16 09:19:31;;;;;;;5.55;0.70;;;;;;;;;;5106188;28;20642;-64
2022/07/16 09:22:09;;;;;;;2.70;0.63;;;;;;;;;;5108121;28;20043;-64
2022/07/16 09:24:35;;;;;;;2.95;0.95;;;;;;;;;;5104973;28;20032;-64
2022/07/16 09:27:05;;;;;;;2.35;0.70;;;;;;;;;;5102116;27;20039;-64
2022/07/16 09:29:33;;;;;;;2.97;0.85;;;;;;;;;;5109130;28;20028;-64
2022/07/16 09:31:59;;;;;;;3.88;0.70;;;;;;;;;;5106325;28;20076;-64
2022/07/16 09:34:25;;;;;;;2.17;0.85;;;;;;;;;;5107433;28;20497;-64
2022/07/16 09:37:01;;;;;;;3.60;0.77;;;;;;;;;;5106760;28;20038;-64
2022/07/16 09:39:28;;;;;;;4.95;0.80;;;;;;;;;;5101480;28;20039;-65
2022/07/16 09:41:54;;;;;;;4.63;1.05;;;;;;;;;;5108063;27;20050;-65
2022/07/16 09:44:22;;;;;;;3.28;0.55;;;;;;;;;;5109878;28;20444;-65
2022/07/16 09:46:57;;;;;;;3.47;0.60;;;;;;;;;;5110913;28;20031;-65
2022/07/16 09:49:23;;;;;;;4.65;0.95;;;;;;;;;;5105026;28;20032;-64
2022/07/16 09:51:49;;;;;;;3.80;0.70;;;;;;;;;;5104860;28;20172;-64
2022/07/16 09:54:26;;;;;;;4.40;0.85;;;;;;;;;;5107498;28;20053;-65
2022/07/16 09:57:13;;;;;;;3.75;0.68;;;;;;;;;;5103773;28;20035;-65
2022/07/16 09:59:40;;;;;;;3.95;0.70;;;;;;;;;;5110451;28;20381;-65
2022/07/16 10:02:06;;;;;;;6.00;0.90;;;;;;;;;;5102244;28;20040;-64
2022/07/16 10:04:32;;;;;;;4.80;0.88;;;;;;;;;;5106326;27;20118;-65
2022/07/16 10:06:59;;;;;;;4.75;0.90;;;;;;;;;;5102216;28;20039;-65
2022/07/16 10:09:25;;;;;;;2.88;0.80;;;;;;;;;;5099611;28;20043;-64
2022/07/16 10:11:53;;;;;;;3.80;0.60;;;;;;;;;;5108201;27;20044;-64
2022/07/16 10:14:19;;;;;;;6.25;1.13;;;;;;;;;;5098906;28;20505;-65
2022/07/16 10:16:45;;;;;;;5.70;0.80;;;;;;;;;;5107667;28;20035;-65
2022/07/16 10:19:12;;;;;;;2.78;0.70;;;;;;;;;;5106550;28;20085;-65
2022/07/16 10:21:39;;;;;;;4.22;0.95;;;;;;;;;;5105770;28;20040;-65
2022/07/16 10:24:08;;;;;;;6.50;1.10;;;;;;;;;;5103774;28;20129;-65
2022/07/16 10:26:34;;;;;;;3.65;0.82;;;;;;;;;;5101704;28;20054;-65
2022/07/16 10:29:01;;;;;;;6.55;1.00;;;;;;;;;;5099061;28;20040;-64
2022/07/16 10:31:35;;;;;;;3.88;0.82;;;;;;;;;;5106114;28;20036;-64
2022/07/16 10:34:13;;;;;;;2.92;0.60;;;;;;;;;;5099937;28;20035;-65
2022/07/16 10:36:47;;;;;;;4.38;0.80;;;;;;;;;;5103248;28;20078;-65
2022/07/16 10:39:16;;;;;;;5.30;0.80;;;;;;;;;;5101615;28;20035;-65
2022/07/16 10:41:49;;;;;;;6.45;1.05;;;;;;;;;;5103091;28;20074;-64
2022/07/16 10:44:15;;;;;;;3.00;0.70;;;;;;;;;;5111081;28;20126;-64
2022/07/16 10:46:53;;;;;;;5.25;0.98;;;;;;;;;;5111806;28;20043;-64
2022/07/16 10:49:20;;;;;;;3.17;0.85;;;;;;;;;;5105136;28;20066;-64
2022/07/16 10:52:03;;;;;;;4.10;0.75;;;;;;;;;;5102917;28;20078;-63
2022/07/16 10:54:35;;;;;;;4.68;0.98;;;;;;;;;;5104322;28;20104;-63
2022/07/16 10:57:02;;;;;;;5.47;1.25;;;;;;;;;;5110275;28;20036;-63
2022/07/16 10:59:32;;;;;;;2.30;0.82;;;;;;;;;;5109577;28;20439;-63
2022/07/16 11:02:00;;;;;;;4.10;0.70;;;;;;;;;;5105762;28;20519;-64
2022/07/16 11:04:33;;;;;;;3.53;0.50;;;;;;;;;;5108912;28;20071;-64
2022/07/16 11:07:00;;;;;;;3.00;0.88;;;;;;;;;;5103757;28;20031;-64
2022/07/16 11:09:31;;;;;;;4.53;0.90;;;;;;;;;;5109627;28;20415;-65
2022/07/16 11:12:06;;;;;;;2.00;0.70;;;;;;;;;;5113601;28;20092;-64
2022/07/16 11:14:32;;;;;;;2.72;0.70;;;;;;;;;;5136783;22;20036;-63
2022/07/16 11:16:58;;;;;;;3.53;0.85;;;;;;;;;;5126808;27;20035;-63
2022/07/16 11:19:25;;;;;;;1.58;0.60;;;;;;;;;;5121190;27;20508;-63
2022/07/16 11:22:01;;;;;;;2.80;0.60;;;;;;;;;;5131210;27;20035;-62
2022/07/16 11:24:29;;;;;;;1.98;0.80;;;;;;;;;;5108724;27;20522;-63
2022/07/16 11:26:55;;;;;;;4.22;0.77;;;;;;;;;;5110392;28;20045;-63
2022/07/16 11:29:23;;;;;;;4.10;0.68;;;;;;;;;;5109162;28;20031;-63
2022/07/16 11:31:49;;;;;;;4.15;0.85;;;;;;;;;;5106667;28;20049;-63
2022/07/16 11:34:18;;;;;;;3.20;0.63;;;;;;;;;;5105236;28;20043;-63
2022/07/16 11:36:47;;;;;;;4.78;0.73;;;;;;;;;;5102853;28;20043;-63
2022/07/16 11:39:14;;;;;;;3.70;0.88;;;;;;;;;;5108886;28;20561;-63
2022/07/16 11:41:43;;;;;;;3.20;0.80;;;;;;;;;;5105121;28;20233;-63
2022/07/16 11:44:09;;;;;;;2.92;0.90;;;;;;;;;;5105367;28;20043;-63
2022/07/16 11:46:41;;;;;;;4.50;1.05;;;;;;;;;;5106962;28;20047;-62
2022/07/16 11:49:07;;;;;;;3.33;0.68;;;;;;;;;;5107998;28;20069;-63
2022/07/16 11:51:37;;;;;;;4.95;1.00;;;;;;;;;;5109170;28;20036;-63
2022/07/16 11:54:03;;;;;;;3.07;0.83;;;;;;;;;;5107239;28;20040;-63
2022/07/16 11:56:36;;;;;;;2.28;0.77;;;;;;;;;;5109147;28;21428;-63
2022/07/16 11:59:03;;;;;;;3.72;0.80;;;;;;;;;;5106581;28;20397;-63
2022/07/16 12:01:33;;;;;;;2.38;0.73;;;;;;;;;;5109929;28;20754;-62
2022/07/16 12:03:59;;;;;;;4.13;0.83;;;;;;;;;;5112891;28;20032;-63
2022/07/16 12:06:26;;;;;;;3.72;0.90;;;;;;;;;;5107659;28;20050;-62
2022/07/16 12:08:55;;;;;;;3.63;0.80;;;;;;;;;;5109881;28;20032;-63
2022/07/16 12:11:29;;;;;;;5.43;0.90;;;;;;;;;;5109708;28;20505;-63
2022/07/16 12:13:55;;;;;;;2.55;0.90;;;;;;;;;;5111844;28;20505;-63
2022/07/16 12:16:22;;;;;;;5.18;0.90;;;;;;;;;;5105467;28;20039;-63
2022/07/16 12:19:04;;;;;;;4.03;1.05;;;;;;;;;;5111169;28;20065;-63
2022/07/16 12:21:35;;;;;;;2.88;0.75;;;;;;;;;;5107757;28;20121;-63
2022/07/16 12:24:02;;;;;;;5.15;1.13;;;;;;;;;;5106524;28;20287;-62
2022/07/16 12:26:32;;;;;;;2.70;1.10;;;;;;;;;;5104412;28;20118;-63
2022/07/16 12:28:58;;;;;;;2.50;0.93;;;;;;;;;;5104643;28;20122;-63
2022/07/16 12:31:31;;;;;;;4.22;0.90;;;;;;;;;;5103636;28;20047;-63
2022/07/16 12:33:58;;;;;;;3.40;1.10;;;;;;;;;;5108467;28;20488;-63
2022/07/16 12:36:31;;;;;;;5.63;1.02;;;;;;;;;;5106176;28;20044;-63
2022/07/16 12:39:04;;;;;;;3.35;0.68;;;;;;;;;;5109968;28;20039;-62
2022/07/16 12:41:36;;;;;;;4.13;0.90;;;;;;;;;;5111437;28;20394;-62
2022/07/16 12:44:06;;;;;;;5.03;1.00;;;;;;;;;;5110340;28;20066;-63
2022/07/16 12:46:33;;;;;;;4.47;0.90;;;;;;;;;;5106979;28;20073;-63
2022/07/16 12:48:59;;;;;;;7.07;1.42;;;;;;;;;;5106274;28;20039;-63
2022/07/16 12:51:27;;;;;;;4.35;1.08;;;;;;;;;;5106814;28;20394;-63
2022/07/16 12:53:54;;;;;;;3.15;0.90;;;;;;;;;;5107847;28;20392;-63
2022/07/16 12:59:05;;;;;;;47.10;4.47;;;;;;;;;;5105478;28;20036;-63
2022/07/16 13:01:31;;;;;;;6.13;1.20;;;;;;;;;;5105800;28;20040;-62
2022/07/16 13:03:58;;;;;;;8.35;1.35;;;;;;;;;;5107794;28;20043;-64
2022/07/16 13:06:24;;;;;;;3.63;0.80;;;;;;;;;;5104762;28;20046;-63
2022/07/16 13:08:51;;;;;;;3.33;0.90;;;;;;;;;;5106487;28;20049;-63
2022/07/16 13:11:18;;;;;;;4.32;0.77;;;;;;;;;;5105718;28;20040;-63
2022/07/16 13:13:44;;;;;;;5.35;0.80;;;;;;;;;;5103829;28;20512;-63
2022/07/16 13:16:10;;;;;;;3.80;1.00;;;;;;;;;;5101037;28;20038;-63
2022/07/16 13:18:37;;;;;;;4.05;0.88;;;;;;;;;;5103531;28;20036;-63
2022/07/16 13:21:04;;;;;;;2.28;0.70;;;;;;;;;;5107907;28;20039;-64
2022/07/16 13:23:31;;;;;;;4.63;1.02;;;;;;;;;;5105836;28;20047;-65
2022/07/16 13:25:57;;;;;;;5.60;0.60;;;;;;;;;;5108682;28;20036;-65
2022/07/16 13:28:24;;;;;;;3.95;0.98;;;;;;;;;;5107940;28;20036;-64
2022/07/16 13:30:50;;;;;;;4.38;0.80;;;;;;;;;;5106167;28;20050;-64
2022/07/16 13:33:16;;;;;;;6.18;1.00;;;;;;;;;;5105873;28;20759;-63
2022/07/16 13:35:42;;;;;;;4.30;0.80;;;;;;;;;;5107093;28;20580;-64
2022/07/16 13:38:09;;;;;;;8.00;0.88;;;;;;;;;;5101078;28;20039;-64
2022/07/16 13:40:35;;;;;;;2.45;0.80;;;;;;;;;;5105527;28;20091;-63
2022/07/16 13:43:01;;;;;;;4.72;0.70;;;;;;;;;;5108042;28;20051;-64
2022/07/16 13:45:27;;;;;;;4.45;0.80;;;;;;;;;;5107812;28;20084;-64
2022/07/16 13:47:53;;;;;;;2.08;0.93;;;;;;;;;;5106351;28;20171;-64
2022/07/16 13:50:20;;;;;;;2.65;0.73;;;;;;;;;;5105478;28;20047;-64
2022/07/16 13:52:46;;;;;;;2.92;0.70;;;;;;;;;;5103125;28;20062;-64
2022/07/16 13:55:12;;;;;;;4.25;0.80;;;;;;;;;;5107352;28;20039;-64
2022/07/16 14:00:25;;;;;;;3.72;0.70;;;;;;;;;;5104167;28;20044;-66
2022/07/16 14:02:51;;;;;;;4.30;1.00;;;;;;;;;;5110225;28;20043;-66
2022/07/16 14:05:17;;;;;;;2.20;0.98;;;;;;;;;;5104257;28;20039;-65
2022/07/16 14:07:43;;;;;;;4.25;0.80;;;;;;;;;;5103702;28;20079;-66
2022/07/16 14:10:11;;;;;;;3.72;0.82;;;;;;;;;;5105191;28;20070;-66
2022/07/16 14:12:37;;;;;;;5.40;1.10;;;;;;;;;;5107600;28;20039;-66
2022/07/16 14:15:03;;;;;;;4.43;1.10;;;;;;;;;;5110067;28;20031;-66
2022/07/16 14:17:29;;;;;;;3.63;0.80;;;;;;;;;;5103479;28;20043;-66
2022/07/16 14:19:55;;;;;;;2.85;0.80;;;;;;;;;;5106682;28;20046;-66
2022/07/16 14:22:21;;;;;;;3.97;1.02;;;;;;;;;;5102040;28;20078;-66
2022/07/16 14:24:47;;;;;;;4.80;0.80;;;;;;;;;;5105393;28;20067;-66
2022/07/16 14:27:13;;;;;;;6.45;1.08;;;;;;;;;;5105067;28;20509;-65
2022/07/16 14:29:39;;;;;;;5.72;1.15;;;;;;;;;;5104343;28;20084;-65
2022/07/16 14:32:08;;;;;;;3.40;0.70;;;;;;;;;;5105872;28;20073;-66
2022/07/16 14:34:34;;;;;;;3.67;1.08;;;;;;;;;;5108476;28;20043;-65
2022/07/16 14:37:00;;;;;;;6.80;0.88;;;;;;;;;;5103401;28;20081;-65
2022/07/16 14:39:26;;;;;;;5.07;1.05;;;;;;;;;;5096931;28;20112;-65
2022/07/16 14:41:52;;;;;;;2.28;0.63;;;;;;;;;;5105082;28;20065;-66
2022/07/16 14:44:18;;;;;;;4.50;0.88;;;;;;;;;;5107492;28;20489;-65
2022/07/16 14:46:44;;;;;;;3.90;0.95;;;;;;;;;;5094459;28;20039;-66
2022/07/16 14:49:10;;;;;;;7.07;1.17;;;;;;;;;;5099340;28;20036;-65
2022/07/16 14:51:38;;;;;;;4.53;1.08;;;;;;;;;;5109321;28;20042;-66